sensor_id;sensor_type;location;lat;lon;timestamp;pressure;altitude;pressure_sealevel;temperature;humidity
75650;BME280;64245;51.282;22.494;2022-10-22T00:02:25;99172.00;;;6.57;89.20
75650;BME280;64245;51.282;22.494;2022-10-22T00:04:52;99163.25;;;6.44;90.52
75650;BME280;64245;51.282;22.494;2022-10-22T00:07:19;99160.69;;;6.65;89.38
75650;BME280;64245;51.282;22.494;2022-10-22T00:09:45;99170.78;;;6.72;87.31
75650;BME280;64245;51.282;22.494;2022-10-22T00:12:13;99145.03;;;6.49;88.44
75650;BME280;64245;51.282;22.494;2022-10-22T00:14:39;99169.81;;;6.62;86.89
75650;BME280;64245;51.282;22.494;2022-10-22T00:17:06;99159.72;;;6.54;85.40
75650;BME280;64245;51.282;22.494;2022-10-22T00:19:32;99146.00;;;6.48;89.54
75650;BME280;64245;51.282;22.494;2022-10-22T00:21:58;99159.88;;;6.53;86.44
75650;BME280;64245;51.282;22.494;2022-10-22T00:24:24;99155.72;;;6.71;86.92
75650;BME280;64245;51.282;22.494;2022-10-22T00:26:51;99148.41;;;6.62;88.48
75650;BME280;64245;51.282;22.494;2022-10-22T00:29:16;99140.75;;;6.69;84.29
75650;BME280;64245;51.282;22.494;2022-10-22T00:31:46;99130.53;;;6.63;89.41
75650;BME280;64245;51.282;22.494;2022-10-22T00:34:17;99122.78;;;6.48;90.24
75650;BME280;64245;51.282;22.494;2022-10-22T00:36:45;99100.41;;;6.49;86.79
75650;BME280;64245;51.282;22.494;2022-10-22T00:39:11;99119.56;;;6.77;88.69
75650;BME280;64245;51.282;22.494;2022-10-22T00:41:38;99115.44;;;6.73;87.29
75650;BME280;64245;51.282;22.494;2022-10-22T00:44:05;99107.06;;;6.66;88.66
75650;BME280;64245;51.282;22.494;2022-10-22T00:46:31;99111.06;;;6.72;84.63
75650;BME280;64245;51.282;22.494;2022-10-22T00:48:59;99077.66;;;6.44;87.11
75650;BME280;64245;51.282;22.494;2022-10-22T00:51:29;99111.44;;;6.56;86.49
75650;BME280;64245;51.282;22.494;2022-10-22T00:54:02;99120.56;;;6.65;88.66
75650;BME280;64245;51.282;22.494;2022-10-22T00:56:29;99119.22;;;6.70;85.87
75650;BME280;64245;51.282;22.494;2022-10-22T00:58:58;99095.00;;;6.61;86.12
75650;BME280;64245;51.282;22.494;2022-10-22T01:01:27;99112.00;;;6.82;84.27
75650;BME280;64245;51.282;22.494;2022-10-22T01:03:53;99106.56;;;6.72;87.81
75650;BME280;64245;51.282;22.494;2022-10-22T01:06:45;99105.81;;;6.81;88.38
75650;BME280;64245;51.282;22.494;2022-10-22T01:15:05;99101.53;;;6.90;89.44
75650;BME280;64245;51.282;22.494;2022-10-22T01:20:40;99104.47;;;6.87;90.41
75650;BME280;64245;51.282;22.494;2022-10-22T01:25:57;99087.69;;;6.74;89.27
75650;BME280;64245;51.282;22.494;2022-10-22T01:31:35;99096.19;;;6.90;87.20
75650;BME280;64245;51.282;22.494;2022-10-22T01:34:05;99078.06;;;6.82;87.56
75650;BME280;64245;51.282;22.494;2022-10-22T01:36:33;99045.63;;;6.65;88.19
75650;BME280;64245;51.282;22.494;2022-10-22T01:39:01;99066.28;;;6.74;89.27
75650;BME280;64245;51.282;22.494;2022-10-22T01:41:28;99083.00;;;6.98;83.57
75650;BME280;64245;51.282;22.494;2022-10-22T01:43:54;99053.84;;;6.84;82.61
75650;BME280;64245;51.282;22.494;2022-10-22T01:46:21;99056.34;;;6.97;87.40
75650;BME280;64245;51.282;22.494;2022-10-22T01:56:40;99068.03;;;6.96;84.71
75650;BME280;64245;51.282;22.494;2022-10-22T02:07:06;99071.94;;;7.23;78.83
75650;BME280;64245;51.282;22.494;2022-10-22T02:09:34;99062.47;;;7.19;84.39
75650;BME280;64245;51.282;22.494;2022-10-22T02:12:05;99069.75;;;7.28;82.67
75650;BME280;64245;51.282;22.494;2022-10-22T02:14:33;99012.41;;;6.99;80.07
75650;BME280;64245;51.282;22.494;2022-10-22T02:17:01;99071.16;;;7.33;82.78
75650;BME280;64245;51.282;22.494;2022-10-22T02:19:58;99059.41;;;7.24;80.15
75650;BME280;64245;51.282;22.494;2022-10-22T02:22:25;99053.59;;;7.40;81.39
75650;BME280;64245;51.282;22.494;2022-10-22T02:24:52;99052.34;;;7.23;81.72
75650;BME280;64245;51.282;22.494;2022-10-22T02:27:31;99053.44;;;7.20;83.90
75650;BME280;64245;51.282;22.494;2022-10-22T02:30:06;99051.72;;;7.31;84.27
75650;BME280;64245;51.282;22.494;2022-10-22T02:32:43;99052.47;;;7.21;86.74
75650;BME280;64245;51.282;22.494;2022-10-22T02:35:14;99045.03;;;7.25;82.06
75650;BME280;64245;51.282;22.494;2022-10-22T02:37:40;99046.75;;;7.26;84.82
75650;BME280;64245;51.282;22.494;2022-10-22T02:40:07;99039.44;;;7.28;82.70
75650;BME280;64245;51.282;22.494;2022-10-22T02:42:33;99028.38;;;7.21;84.52
75650;BME280;64245;51.282;22.494;2022-10-22T02:44:59;99032.09;;;7.09;86.78
75650;BME280;64245;51.282;22.494;2022-10-22T02:47:25;99022.94;;;7.33;83.37
75650;BME280;64245;51.282;22.494;2022-10-22T02:49:50;99014.72;;;7.24;80.92
75650;BME280;64245;51.282;22.494;2022-10-22T02:52:16;99007.16;;;7.30;84.59
75650;BME280;64245;51.282;22.494;2022-10-22T02:54:42;99023.75;;;7.23;83.54
75650;BME280;64245;51.282;22.494;2022-10-22T02:57:07;99010.59;;;7.20;79.42
75650;BME280;64245;51.282;22.494;2022-10-22T02:59:33;99021.94;;;7.13;84.65
75650;BME280;64245;51.282;22.494;2022-10-22T03:01:59;99016.81;;;7.21;79.41
75650;BME280;64245;51.282;22.494;2022-10-22T03:04:25;99008.38;;;7.25;82.26
75650;BME280;64245;51.282;22.494;2022-10-22T03:06:50;98996.63;;;7.17;78.96
75650;BME280;64245;51.282;22.494;2022-10-22T03:09:16;99006.88;;;7.33;83.42
75650;BME280;64245;51.282;22.494;2022-10-22T03:11:42;99007.34;;;7.38;83.59
75650;BME280;64245;51.282;22.494;2022-10-22T03:14:07;98992.22;;;7.37;81.53
75650;BME280;64245;51.282;22.494;2022-10-22T03:16:33;99011.72;;;7.39;79.23
75650;BME280;64245;51.282;22.494;2022-10-22T03:18:59;98994.53;;;7.20;83.01
75650;BME280;64245;51.282;22.494;2022-10-22T03:21:50;99010.88;;;7.38;83.03
75650;BME280;64245;51.282;22.494;2022-10-22T03:24:22;99011.19;;;7.45;81.31
75650;BME280;64245;51.282;22.494;2022-10-22T03:26:50;99004.91;;;7.35;81.33
75650;BME280;64245;51.282;22.494;2022-10-22T03:29:16;98989.44;;;7.38;79.75
75650;BME280;64245;51.282;22.494;2022-10-22T03:31:42;98999.03;;;7.41;78.00
75650;BME280;64245;51.282;22.494;2022-10-22T03:34:08;99011.09;;;7.56;79.94
75650;BME280;64245;51.282;22.494;2022-10-22T03:36:36;98995.38;;;7.42;80.85
75650;BME280;64245;51.282;22.494;2022-10-22T03:39:03;99000.41;;;7.35;83.26
75650;BME280;64245;51.282;22.494;2022-10-22T03:41:29;98988.84;;;7.35;79.26
75650;BME280;64245;51.282;22.494;2022-10-22T03:43:55;99009.75;;;7.61;80.69
75650;BME280;64245;51.282;22.494;2022-10-22T03:46:22;99009.00;;;7.59;79.50
75650;BME280;64245;51.282;22.494;2022-10-22T03:48:48;98988.91;;;7.44;83.65
75650;BME280;64245;51.282;22.494;2022-10-22T03:51:13;98989.94;;;7.53;83.11
75650;BME280;64245;51.282;22.494;2022-10-22T03:53:39;98976.81;;;7.50;77.68
75650;BME280;64245;51.282;22.494;2022-10-22T03:56:09;98985.94;;;7.68;79.60
75650;BME280;64245;51.282;22.494;2022-10-22T03:58:36;98982.41;;;7.68;77.72
75650;BME280;64245;51.282;22.494;2022-10-22T04:01:06;98991.50;;;7.55;81.44
75650;BME280;64245;51.282;22.494;2022-10-22T04:03:31;98981.72;;;7.45;82.50
75650;BME280;64245;51.282;22.494;2022-10-22T04:06:02;98991.38;;;7.57;79.83
75650;BME280;64245;51.282;22.494;2022-10-22T04:08:28;98989.06;;;7.52;82.13
75650;BME280;64245;51.282;22.494;2022-10-22T04:10:54;98985.50;;;7.42;80.31
75650;BME280;64245;51.282;22.494;2022-10-22T04:13:20;98991.06;;;7.50;78.56
75650;BME280;64245;51.282;22.494;2022-10-22T04:15:45;98988.84;;;7.35;78.54
75650;BME280;64245;51.282;22.494;2022-10-22T04:18:11;99001.50;;;7.33;79.52
75650;BME280;64245;51.282;22.494;2022-10-22T04:20:37;98991.25;;;7.17;78.88
75650;BME280;64245;51.282;22.494;2022-10-22T04:23:02;98993.63;;;7.10;80.65
75650;BME280;64245;51.282;22.494;2022-10-22T04:25:28;98984.16;;;6.74;84.58
75650;BME280;64245;51.282;22.494;2022-10-22T04:27:54;98979.16;;;6.81;81.43
75650;BME280;64245;51.282;22.494;2022-10-22T04:30:19;98983.78;;;6.79;82.93
75650;BME280;64245;51.282;22.494;2022-10-22T04:32:45;98999.06;;;6.67;83.61
75650;BME280;64245;51.282;22.494;2022-10-22T04:35:10;99000.31;;;6.84;82.57
75650;BME280;64245;51.282;22.494;2022-10-22T04:37:36;98971.50;;;6.76;81.11
75650;BME280;64245;51.282;22.494;2022-10-22T04:40:02;98961.47;;;6.69;80.88
75650;BME280;64245;51.282;22.494;2022-10-22T04:42:28;98962.47;;;6.56;81.67
75650;BME280;64245;51.282;22.494;2022-10-22T04:44:54;98956.19;;;6.46;82.46
75650;BME280;64245;51.282;22.494;2022-10-22T04:47:20;98966.66;;;6.49;82.95
75650;BME280;64245;51.282;22.494;2022-10-22T04:49:46;98976.50;;;6.49;82.16
75650;BME280;64245;51.282;22.494;2022-10-22T04:52:11;98944.94;;;6.32;81.76
75650;BME280;64245;51.282;22.494;2022-10-22T04:54:37;98962.03;;;6.40;83.49
75650;BME280;64245;51.282;22.494;2022-10-22T04:57:03;98952.97;;;6.32;81.35
75650;BME280;64245;51.282;22.494;2022-10-22T04:59:28;98956.00;;;6.27;82.87
75650;BME280;64245;51.282;22.494;2022-10-22T05:01:54;98949.03;;;5.93;84.51
75650;BME280;64245;51.282;22.494;2022-10-22T05:04:20;98972.81;;;6.07;84.40
75650;BME280;64245;51.282;22.494;2022-10-22T05:06:46;98976.38;;;5.96;87.28
75650;BME280;64245;51.282;22.494;2022-10-22T05:09:14;98980.88;;;5.96;86.34
75650;BME280;64245;51.282;22.494;2022-10-22T05:11:43;98986.53;;;5.80;88.85
75650;BME280;64245;51.282;22.494;2022-10-22T05:14:15;98980.38;;;5.91;85.89
75650;BME280;64245;51.282;22.494;2022-10-22T05:16:42;98983.38;;;5.86;86.74
75650;BME280;64245;51.282;22.494;2022-10-22T05:19:10;98980.59;;;5.65;87.67
75650;BME280;64245;51.282;22.494;2022-10-22T05:21:39;98987.78;;;5.76;89.23
75650;BME280;64245;51.282;22.494;2022-10-22T05:24:05;98978.03;;;5.64;85.64
75650;BME280;64245;51.282;22.494;2022-10-22T05:26:31;98983.91;;;5.91;86.07
75650;BME280;64245;51.282;22.494;2022-10-22T05:28:56;98983.38;;;5.86;86.76
75650;BME280;64245;51.282;22.494;2022-10-22T05:31:22;98976.09;;;5.88;85.30
75650;BME280;64245;51.282;22.494;2022-10-22T05:33:48;98981.09;;;6.04;86.10
75650;BME280;64245;51.282;22.494;2022-10-22T05:36:18;98983.75;;;6.15;85.55
75650;BME280;64245;51.282;22.494;2022-10-22T05:38:44;98979.19;;;6.38;84.36
75650;BME280;64245;51.282;22.494;2022-10-22T05:41:12;98963.00;;;6.50;83.13
75650;BME280;64245;51.282;22.494;2022-10-22T05:43:38;98979.63;;;6.86;81.93
75650;BME280;64245;51.282;22.494;2022-10-22T05:46:07;98986.31;;;6.91;82.19
75650;BME280;64245;51.282;22.494;2022-10-22T05:48:33;98993.41;;;7.02;83.68
75650;BME280;64245;51.282;22.494;2022-10-22T05:51:10;98998.03;;;7.00;82.34
75650;BME280;64245;51.282;22.494;2022-10-22T05:53:39;99006.69;;;7.04;78.16
75650;BME280;64245;51.282;22.494;2022-10-22T05:56:15;98997.88;;;6.81;83.30
75650;BME280;64245;51.282;22.494;2022-10-22T05:58:42;99000.97;;;6.97;80.45
75650;BME280;64245;51.282;22.494;2022-10-22T06:03:39;98998.38;;;7.07;81.16
75650;BME280;64245;51.282;22.494;2022-10-22T06:09:10;99006.03;;;7.11;83.25
75650;BME280;64245;51.282;22.494;2022-10-22T06:11:37;99006.34;;;7.18;78.56
75650;BME280;64245;51.282;22.494;2022-10-22T06:14:03;99000.09;;;7.28;77.81
75650;BME280;64245;51.282;22.494;2022-10-22T06:16:30;98995.00;;;7.25;80.60
75650;BME280;64245;51.282;22.494;2022-10-22T06:18:58;99001.22;;;7.26;81.22
75650;BME280;64245;51.282;22.494;2022-10-22T06:21:26;98960.66;;;7.10;81.22
75650;BME280;64245;51.282;22.494;2022-10-22T06:23:55;98991.50;;;7.35;79.90
75650;BME280;64245;51.282;22.494;2022-10-22T06:26:21;99013.50;;;7.49;79.13
75650;BME280;64245;51.282;22.494;2022-10-22T06:28:46;99008.06;;;7.70;76.77
75650;BME280;64245;51.282;22.494;2022-10-22T06:31:12;98999.56;;;7.86;77.74
75650;BME280;64245;51.282;22.494;2022-10-22T06:33:39;99012.47;;;8.02;80.15
75650;BME280;64245;51.282;22.494;2022-10-22T06:36:16;98991.47;;;8.07;74.68
75650;BME280;64245;51.282;22.494;2022-10-22T06:38:42;99010.38;;;8.15;76.70
75650;BME280;64245;51.282;22.494;2022-10-22T06:41:11;99015.22;;;8.21;76.24
75650;BME280;64245;51.282;22.494;2022-10-22T06:43:37;99018.19;;;8.27;76.76
75650;BME280;64245;51.282;22.494;2022-10-22T06:46:06;99015.22;;;8.30;74.86
75650;BME280;64245;51.282;22.494;2022-10-22T06:48:33;99011.91;;;8.38;76.56
75650;BME280;64245;51.282;22.494;2022-10-22T06:51:02;99025.09;;;8.60;73.38
75650;BME280;64245;51.282;22.494;2022-10-22T06:53:29;99001.34;;;8.46;73.73
75650;BME280;64245;51.282;22.494;2022-10-22T06:55:55;99009.25;;;8.67;74.47
75650;BME280;64245;51.282;22.494;2022-10-22T06:58:20;98996.97;;;8.55;78.67
75650;BME280;64245;51.282;22.494;2022-10-22T07:00:46;99007.75;;;8.84;72.25
75650;BME280;64245;51.282;22.494;2022-10-22T07:03:13;99018.19;;;9.06;72.42
75650;BME280;64245;51.282;22.494;2022-10-22T07:05:39;99005.47;;;9.08;72.86
75650;BME280;64245;51.282;22.494;2022-10-22T07:08:05;98975.22;;;9.06;73.26
75650;BME280;64245;51.282;22.494;2022-10-22T07:10:31;99001.06;;;9.26;71.57
75650;BME280;64245;51.282;22.494;2022-10-22T07:12:57;99002.34;;;9.42;71.17
75650;BME280;64245;51.282;22.494;2022-10-22T07:15:23;98983.34;;;9.43;72.59
75650;BME280;64245;51.282;22.494;2022-10-22T07:17:49;98978.59;;;9.37;71.34
75650;BME280;64245;51.282;22.494;2022-10-22T07:20:17;98994.94;;;9.53;72.33
75650;BME280;64245;51.282;22.494;2022-10-22T07:22:44;98996.66;;;9.54;72.17
75650;BME280;64245;51.282;22.494;2022-10-22T07:25:10;98992.13;;;9.55;71.78
75650;BME280;64245;51.282;22.494;2022-10-22T07:27:37;98999.94;;;9.85;70.89
75650;BME280;64245;51.282;22.494;2022-10-22T07:30:04;98986.22;;;10.16;69.71
75650;BME280;64245;51.282;22.494;2022-10-22T07:32:30;98990.16;;;10.31;71.02
75650;BME280;64245;51.282;22.494;2022-10-22T07:34:57;98992.47;;;10.44;70.11
75650;BME280;64245;51.282;22.494;2022-10-22T07:37:23;99001.81;;;10.67;67.64
75650;BME280;64245;51.282;22.494;2022-10-22T07:39:50;99019.28;;;10.63;68.76
75650;BME280;64245;51.282;22.494;2022-10-22T07:42:17;99020.78;;;10.48;68.52
75650;BME280;64245;51.282;22.494;2022-10-22T07:44:44;98994.16;;;10.45;69.46
75650;BME280;64245;51.282;22.494;2022-10-22T07:47:10;99002.91;;;10.74;68.65
75650;BME280;64245;51.282;22.494;2022-10-22T07:49:36;98996.28;;;10.68;71.86
75650;BME280;64245;51.282;22.494;2022-10-22T07:52:05;98997.81;;;10.71;69.45
75650;BME280;64245;51.282;22.494;2022-10-22T07:54:36;98984.06;;;10.74;68.52
75650;BME280;64245;51.282;22.494;2022-10-22T07:57:01;99003.50;;;10.68;71.17
75650;BME280;64245;51.282;22.494;2022-10-22T07:59:28;98995.13;;;10.53;72.37
75650;BME280;64245;51.282;22.494;2022-10-22T08:01:55;99013.53;;;10.76;69.25
75650;BME280;64245;51.282;22.494;2022-10-22T08:04:21;99000.22;;;10.74;71.15
75650;BME280;64245;51.282;22.494;2022-10-22T08:06:47;99011.84;;;10.75;69.58
75650;BME280;64245;51.282;22.494;2022-10-22T08:09:13;99004.22;;;10.88;69.86
75650;BME280;64245;51.282;22.494;2022-10-22T08:11:39;99000.22;;;10.92;68.83
75650;BME280;64245;51.282;22.494;2022-10-22T08:14:05;98980.81;;;10.88;69.01
75650;BME280;64245;51.282;22.494;2022-10-22T08:16:30;98982.25;;;11.18;69.34
75650;BME280;64245;51.282;22.494;2022-10-22T08:18:56;98979.72;;;11.17;67.90
75650;BME280;64245;51.282;22.494;2022-10-22T08:21:22;98973.09;;;11.29;69.93
75650;BME280;64245;51.282;22.494;2022-10-22T08:23:47;98983.25;;;11.17;68.11
75650;BME280;64245;51.282;22.494;2022-10-22T08:26:13;98987.59;;;11.10;68.27
75650;BME280;64245;51.282;22.494;2022-10-22T08:28:39;98999.59;;;10.98;68.77
75650;BME280;64245;51.282;22.494;2022-10-22T08:31:06;99011.59;;;10.86;69.10
75650;BME280;64245;51.282;22.494;2022-10-22T08:33:33;98988.91;;;10.70;69.41
75650;BME280;64245;51.282;22.494;2022-10-22T08:35:58;98990.59;;;10.71;69.19
75650;BME280;64245;51.282;22.494;2022-10-22T08:38:25;99002.94;;;10.92;69.63
75650;BME280;64245;51.282;22.494;2022-10-22T08:40:56;99023.63;;;11.27;68.31
75650;BME280;64245;51.282;22.494;2022-10-22T08:46:11;99019.44;;;11.50;67.78
75650;BME280;64245;51.282;22.494;2022-10-22T08:48:48;99011.53;;;11.57;68.04
75650;BME280;64245;51.282;22.494;2022-10-22T08:51:18;99022.78;;;11.70;67.13
75650;BME280;64245;51.282;22.494;2022-10-22T08:54:05;99041.41;;;11.81;66.73
75650;BME280;64245;51.282;22.494;2022-10-22T08:56:34;99026.16;;;11.90;67.69
75650;BME280;64245;51.282;22.494;2022-10-22T08:59:33;99040.34;;;12.00;69.42
75650;BME280;64245;51.282;22.494;2022-10-22T09:02:04;99028.94;;;12.06;67.14
75650;BME280;64245;51.282;22.494;2022-10-22T09:04:44;99019.69;;;12.17;67.52
75650;BME280;64245;51.282;22.494;2022-10-22T09:07:10;99024.13;;;12.26;66.23
75650;BME280;64245;51.282;22.494;2022-10-22T09:09:41;99052.22;;;12.41;64.67
75650;BME280;64245;51.282;22.494;2022-10-22T09:12:14;99048.56;;;12.50;65.60
75650;BME280;64245;51.282;22.494;2022-10-22T09:14:41;99017.91;;;12.33;65.28
75650;BME280;64245;51.282;22.494;2022-10-22T09:17:15;99060.47;;;12.39;65.68
75650;BME280;64245;51.282;22.494;2022-10-22T09:19:55;99036.41;;;12.54;64.16
75650;BME280;64245;51.282;22.494;2022-10-22T09:27:44;99016.41;;;12.81;64.88
75650;BME280;64245;51.282;22.494;2022-10-22T09:30:22;99030.19;;;12.62;64.98
75650;BME280;64245;51.282;22.494;2022-10-22T09:32:51;99020.69;;;12.50;65.64
75650;BME280;64245;51.282;22.494;2022-10-22T09:35:22;99000.66;;;12.68;64.59
75650;BME280;64245;51.282;22.494;2022-10-22T09:37:52;99037.81;;;12.66;65.31
75650;BME280;64245;51.282;22.494;2022-10-22T09:40:18;99010.03;;;12.40;65.87
75650;BME280;64245;51.282;22.494;2022-10-22T09:42:47;99022.94;;;12.70;65.31
75650;BME280;64245;51.282;22.494;2022-10-22T09:45:23;99032.56;;;12.73;65.58
75650;BME280;64245;51.282;22.494;2022-10-22T09:48:02;99008.53;;;12.45;67.00
75650;BME280;64245;51.282;22.494;2022-10-22T09:55:39;99011.75;;;12.57;66.85
75650;BME280;64245;51.282;22.494;2022-10-22T09:58:09;99033.84;;;12.53;68.40
75650;BME280;64245;51.282;22.494;2022-10-22T10:00:38;99027.31;;;12.63;67.82
75650;BME280;64245;51.282;22.494;2022-10-22T10:03:04;99009.25;;;12.72;66.50
75650;BME280;64245;51.282;22.494;2022-10-22T10:05:33;98987.28;;;12.59;66.92
75650;BME280;64245;51.282;22.494;2022-10-22T10:08:07;99012.97;;;12.63;66.94
75650;BME280;64245;51.282;22.494;2022-10-22T10:13:40;99013.53;;;12.91;66.52
75650;BME280;64245;51.282;22.494;2022-10-22T10:16:23;99018.97;;;12.99;68.68
75650;BME280;64245;51.282;22.494;2022-10-22T10:27:30;99004.59;;;12.98;68.00
75650;BME280;64245;51.282;22.494;2022-10-22T10:30:15;99014.22;;;13.09;67.83
75650;BME280;64245;51.282;22.494;2022-10-22T10:35:21;99006.00;;;13.19;66.68
75650;BME280;64245;51.282;22.494;2022-10-22T10:40:51;99019.13;;;12.89;67.41
75650;BME280;64245;51.282;22.494;2022-10-22T10:46:31;99018.47;;;13.03;66.99
75650;BME280;64245;51.282;22.494;2022-10-22T10:54:34;99015.94;;;13.67;66.48
75650;BME280;64245;51.282;22.494;2022-10-22T11:00:19;99017.00;;;13.66;67.65
75650;BME280;64245;51.282;22.494;2022-10-22T11:05:54;98997.06;;;13.18;68.71
75650;BME280;64245;51.282;22.494;2022-10-22T11:08:46;99007.00;;;13.50;67.66
75650;BME280;64245;51.282;22.494;2022-10-22T11:11:47;99005.50;;;13.31;67.74
75650;BME280;64245;51.282;22.494;2022-10-22T11:14:22;99001.97;;;13.39;68.40
75650;BME280;64245;51.282;22.494;2022-10-22T11:16:57;99006.19;;;13.41;68.14
75650;BME280;64245;51.282;22.494;2022-10-22T11:19:33;99003.13;;;13.28;69.58
75650;BME280;64245;51.282;22.494;2022-10-22T11:22:12;98999.41;;;13.29;69.83
75650;BME280;64245;51.282;22.494;2022-10-22T11:24:48;98984.72;;;13.40;68.47
75650;BME280;64245;51.282;22.494;2022-10-22T11:27:52;98991.13;;;13.31;68.49
75650;BME280;64245;51.282;22.494;2022-10-22T11:30:23;98983.84;;;13.31;69.42
75650;BME280;64245;51.282;22.494;2022-10-22T11:32:59;98977.13;;;13.27;69.58
75650;BME280;64245;51.282;22.494;2022-10-22T11:35:34;98980.13;;;13.32;70.11
75650;BME280;64245;51.282;22.494;2022-10-22T11:38:04;98982.50;;;13.52;69.65
75650;BME280;64245;51.282;22.494;2022-10-22T11:40:36;98974.56;;;13.42;69.49
75650;BME280;64245;51.282;22.494;2022-10-22T11:43:08;98980.13;;;13.57;69.11
75650;BME280;64245;51.282;22.494;2022-10-22T11:45:40;98976.06;;;13.53;69.82
75650;BME280;64245;51.282;22.494;2022-10-22T11:50:51;98976.38;;;13.74;69.41
75650;BME280;64245;51.282;22.494;2022-10-22T11:55:55;98978.06;;;13.75;69.46
75650;BME280;64245;51.282;22.494;2022-10-22T11:58:40;98984.31;;;13.67;70.54
75650;BME280;64245;51.282;22.494;2022-10-22T12:19:06;98982.31;;;13.53;71.21
75650;BME280;64245;51.282;22.494;2022-10-22T12:21:37;98974.72;;;13.57;70.66
75650;BME280;64245;51.282;22.494;2022-10-22T12:24:04;98975.41;;;13.59;70.92
75650;BME280;64245;51.282;22.494;2022-10-22T12:26:31;98966.59;;;13.48;72.21
75650;BME280;64245;51.282;22.494;2022-10-22T12:29:02;98969.66;;;13.37;72.27
75650;BME280;64245;51.282;22.494;2022-10-22T12:31:35;98967.13;;;13.44;71.88
75650;BME280;64245;51.282;22.494;2022-10-22T12:34:02;98958.34;;;13.34;72.58
75650;BME280;64245;51.282;22.494;2022-10-22T12:36:34;98963.25;;;13.46;73.24
75650;BME280;64245;51.282;22.494;2022-10-22T12:39:01;98961.56;;;13.45;74.35
75650;BME280;64245;51.282;22.494;2022-10-22T12:41:32;98965.41;;;13.51;72.77
75650;BME280;64245;51.282;22.494;2022-10-22T12:44:00;98968.47;;;13.48;72.41
75650;BME280;64245;51.282;22.494;2022-10-22T12:46:27;98957.81;;;13.30;73.70
75650;BME280;64245;51.282;22.494;2022-10-22T12:49:01;98962.38;;;13.30;73.81
75650;BME280;64245;51.282;22.494;2022-10-22T12:51:27;98950.38;;;13.32;73.00
75650;BME280;64245;51.282;22.494;2022-10-22T12:53:56;98931.31;;;13.18;72.81
75650;BME280;64245;51.282;22.494;2022-10-22T12:56:28;98941.75;;;13.29;72.61
75650;BME280;64245;51.282;22.494;2022-10-22T12:59:19;98958.69;;;13.23;73.87
75650;BME280;64245;51.282;22.494;2022-10-22T13:01:47;98963.06;;;13.16;74.82
75650;BME280;64245;51.282;22.494;2022-10-22T13:04:31;98971.00;;;13.33;73.58
75650;BME280;64245;51.282;22.494;2022-10-22T13:07:16;98954.97;;;13.16;75.32
75650;BME280;64245;51.282;22.494;2022-10-22T13:09:45;98956.16;;;13.21;76.24
75650;BME280;64245;51.282;22.494;2022-10-22T13:12:12;98962.53;;;13.04;75.73
75650;BME280;64245;51.282;22.494;2022-10-22T13:14:44;98967.94;;;13.04;74.89
75650;BME280;64245;51.282;22.494;2022-10-22T13:17:18;98961.19;;;13.08;74.96
75650;BME280;64245;51.282;22.494;2022-10-22T13:25:19;98961.06;;;13.18;75.06
75650;BME280;64245;51.282;22.494;2022-10-22T13:27:55;98955.78;;;13.00;75.48
75650;BME280;64245;51.282;22.494;2022-10-22T13:30:33;98944.28;;;12.98;75.89
75650;BME280;64245;51.282;22.494;2022-10-22T13:33:18;98946.28;;;12.79;77.78
75650;BME280;64245;51.282;22.494;2022-10-22T13:35:47;98928.06;;;12.90;75.73
75650;BME280;64245;51.282;22.494;2022-10-22T13:38:21;98931.75;;;12.72;77.66
75650;BME280;64245;51.282;22.494;2022-10-22T13:40:47;98930.41;;;12.76;77.60
75650;BME280;64245;51.282;22.494;2022-10-22T13:43:14;98918.59;;;12.77;78.31
75650;BME280;64245;51.282;22.494;2022-10-22T13:45:40;98887.84;;;12.70;76.93
75650;BME280;64245;51.282;22.494;2022-10-22T13:48:14;98891.91;;;12.58;78.05
75650;BME280;64245;51.282;22.494;2022-10-22T13:50:40;98914.56;;;12.82;79.87
75650;BME280;64245;51.282;22.494;2022-10-22T13:53:09;98920.47;;;12.85;79.39
75650;BME280;64245;51.282;22.494;2022-10-22T13:55:43;98874.00;;;12.49;78.14
75650;BME280;64245;51.282;22.494;2022-10-22T13:58:12;98927.38;;;12.79;80.41
75650;BME280;64245;51.282;22.494;2022-10-22T14:00:40;98919.25;;;12.63;79.70
75650;BME280;64245;51.282;22.494;2022-10-22T14:03:10;98921.97;;;12.63;78.41
75650;BME280;64245;51.282;22.494;2022-10-22T14:05:37;98923.47;;;12.74;79.39
75650;BME280;64245;51.282;22.494;2022-10-22T14:08:03;98919.91;;;12.57;78.22
75650;BME280;64245;51.282;22.494;2022-10-22T14:10:30;98921.97;;;12.63;77.00
75650;BME280;64245;51.282;22.494;2022-10-22T14:12:56;98920.06;;;12.56;77.31
75650;BME280;64245;51.282;22.494;2022-10-22T14:15:24;98945.78;;;12.76;76.29
75650;BME280;64245;51.282;22.494;2022-10-22T14:17:55;98930.56;;;12.59;77.84
75650;BME280;64245;51.282;22.494;2022-10-22T14:20:25;98935.59;;;12.45;79.09
75650;BME280;64245;51.282;22.494;2022-10-22T14:22:52;98930.66;;;12.33;77.25
75650;BME280;64245;51.282;22.494;2022-10-22T14:25:21;98938.53;;;12.10;78.84
75650;BME280;64245;51.282;22.494;2022-10-22T14:27:47;98945.44;;;12.13;78.23
75650;BME280;64245;51.282;22.494;2022-10-22T14:30:21;98933.47;;;12.07;79.04
75650;BME280;64245;51.282;22.494;2022-10-22T14:32:48;98953.19;;;12.07;79.02
75650;BME280;64245;51.282;22.494;2022-10-22T14:35:17;98962.63;;;12.03;80.31
75650;BME280;64245;51.282;22.494;2022-10-22T14:37:43;98959.72;;;11.97;79.67
75650;BME280;64245;51.282;22.494;2022-10-22T14:40:12;98960.00;;;11.86;80.92
75650;BME280;64245;51.282;22.494;2022-10-22T14:42:40;98945.72;;;11.67;81.31
75650;BME280;64245;51.282;22.494;2022-10-22T14:45:09;98953.91;;;11.58;81.39
75650;BME280;64245;51.282;22.494;2022-10-22T14:47:38;98960.34;;;11.39;83.48
75650;BME280;64245;51.282;22.494;2022-10-22T14:50:04;98938.16;;;11.45;82.82
75650;BME280;64245;51.282;22.494;2022-10-22T14:52:31;98940.31;;;11.41;82.13
75650;BME280;64245;51.282;22.494;2022-10-22T14:54:57;98940.28;;;11.33;82.72
75650;BME280;64245;51.282;22.494;2022-10-22T14:57:22;98940.34;;;11.24;83.75